Time;durP1;ratioP1;P1;durP2;ratioP2;P2;SDS_P1;SDS_P2;PMS_P1;PMS_P2;Temp;Humidity;BMP_temperature;BMP_pressure;BME280_temperature;BME280_humidity;BME280_pressure;Samples;Min_cycle;Max_cycle;Signal;HPM_P1;HPM_P2
2020/12/10 00:00:58;;;;;;;55.53;21.42;;;-3275.60;93.30;;;;;;5014745;28;20485;-90
2020/12/10 00:03:24;;;;;;;64.38;22.45;;;-3275.50;93.10;;;;;;5014522;28;20383;-87
2020/12/10 00:05:50;;;;;;;53.77;22.03;;;-3275.60;93.50;;;;;;5014805;28;20384;-90
2020/12/10 00:08:15;;;;;;;57.17;21.87;;;-3275.60;93.30;;;;;;5013956;28;20729;-89
2020/12/10 00:10:41;;;;;;;51.33;21.02;;;-3275.40;93.60;;;;;;5014584;28;20798;-90
2020/12/10 00:13:06;;;;;;;57.95;22.80;;;-3275.50;93.50;;;;;;5014262;28;20480;-90
2020/12/10 00:15:32;;;;;;;61.28;22.77;;;-3275.60;93.60;;;;;;5014555;28;20824;-90
2020/12/10 00:17:57;;;;;;;69.07;24.27;;;-3275.60;93.50;;;;;;5031275;28;20387;-88
2020/12/10 00:20:23;;;;;;;57.23;22.27;;;-3275.60;93.80;;;;;;5014517;28;20422;-90
2020/12/10 00:22:48;;;;;;;60.37;23.20;;;-3275.60;93.90;;;;;;5031878;28;20512;-89
2020/12/10 00:25:14;;;;;;;58.30;23.27;;;-3275.60;93.90;;;;;;5014415;28;20383;-89
2020/12/10 00:27:39;;;;;;;54.40;22.40;;;-3275.60;94.00;;;;;;4997291;28;20429;-91
2020/12/10 00:30:08;;;;;;;56.90;22.20;;;-3275.50;93.90;;;;;;5014670;28;20386;-91
2020/12/10 00:32:34;;;;;;;56.65;21.63;;;-3275.60;93.90;;;;;;5015231;28;20501;-88
2020/12/10 00:34:59;;;;;;;56.55;21.48;;;-3275.60;94.30;;;;;;5031840;28;20419;-91
2020/12/10 00:37:26;;;;;;;59.30;22.10;;;-3275.60;94.10;;;;;;5031648;28;20379;-91
2020/12/10 00:39:51;;;;;;;54.92;22.67;;;-3275.70;94.10;;;;;;5014191;28;20383;-90
2020/12/10 00:42:17;;;;;;;55.15;22.23;;;-3275.80;94.20;;;;;;5014478;28;20398;-89
2020/12/10 00:44:42;;;;;;;54.22;20.95;;;-3275.80;93.90;;;;;;5014248;28;20393;-88
2020/12/10 00:47:08;;;;;;;50.00;20.83;;;-3275.80;94.30;;;;;;5013967;28;20442;-91
2020/12/10 00:49:33;;;;;;;56.47;21.97;;;-3275.90;94.10;;;;;;5014223;28;20379;-91
2020/12/10 00:51:59;;;;;;;51.53;20.40;;;-3276.00;94.00;;;;;;5014010;28;20505;-89
2020/12/10 00:54:25;;;;;;;53.40;21.30;;;-3276.00;93.80;;;;;;5014192;28;20407;-88
2020/12/10 00:56:50;;;;;;;49.13;20.13;;;-3276.10;93.90;;;;;;5013649;28;20560;-90
2020/12/10 00:59:16;;;;;;;45.53;19.67;;;-3276.30;93.80;;;;;;5014396;28;20700;-90
2020/12/10 01:01:42;;;;;;;50.13;21.15;;;-3276.20;93.60;;;;;;5013872;28;20387;-90
2020/12/10 01:04:09;;;;;;;51.88;19.42;;;-3276.30;93.40;;;;;;4997707;28;20422;-88
2020/12/10 01:06:34;;;;;;;47.33;19.80;;;-3276.20;93.70;;;;;;5013689;28;20467;-82
2020/12/10 01:09:00;;;;;;;48.73;20.57;;;-3276.30;93.30;;;;;;5031868;28;20410;-91
2020/12/10 01:11:27;;;;;;;52.88;21.05;;;-3276.30;93.20;;;;;;5013770;28;20767;-88
2020/12/10 01:13:53;;;;;;;49.05;20.00;;;-3276.30;93.20;;;;;;5014143;28;20748;-90
2020/12/10 01:16:18;;;;;;;45.80;19.17;;;-3276.30;93.30;;;;;;5014129;28;20551;-89
2020/12/10 01:18:44;;;;;;;48.13;20.30;;;-3276.30;93.50;;;;;;5013554;28;20415;-89
2020/12/10 01:21:10;;;;;;;49.23;19.57;;;-3276.30;93.60;;;;;;4997165;28;20399;-89
2020/12/10 01:23:35;;;;;;;52.20;20.77;;;-3276.30;93.20;;;;;;5013787;28;20395;-87
2020/12/10 01:26:01;;;;;;;51.05;20.92;;;-3276.30;93.30;;;;;;5031250;28;20394;-86
2020/12/10 01:28:27;;;;;;;47.67;20.95;;;-3276.30;93.30;;;;;;4996490;28;20398;-89
2020/12/10 01:30:52;;;;;;;55.40;22.05;;;-3276.30;93.20;;;;;;5013764;28;20820;-88
2020/12/10 01:33:18;;;;;;;50.17;20.77;;;-3276.30;93.20;;;;;;5030599;28;20728;-89
2020/12/10 01:35:43;;;;;;;51.73;19.97;;;-3276.20;93.30;;;;;;4997255;28;20951;-87
2020/12/10 01:38:09;;;;;;;52.17;20.93;;;-3276.30;93.20;;;;;;4997528;28;20394;-90
2020/12/10 01:40:34;;;;;;;52.83;21.33;;;-3276.30;93.20;;;;;;5017506;28;20393;-90
2020/12/10 01:43:00;;;;;;;52.17;20.77;;;-3276.20;93.70;;;;;;5016784;28;20394;-89
2020/12/10 01:45:26;;;;;;;50.80;20.73;;;-3276.20;93.80;;;;;;5000928;28;20430;-87
2020/12/10 01:47:51;;;;;;;50.30;22.08;;;-3276.30;93.80;;;;;;5016777;28;20497;-90
2020/12/10 01:50:17;;;;;;;52.58;22.02;;;-3276.30;93.70;;;;;;5017308;28;20375;-89
2020/12/10 01:52:42;;;;;;;50.55;20.75;;;-3276.30;93.30;;;;;;5016459;28;20422;-88
2020/12/10 01:55:08;;;;;;;45.67;19.93;;;-3276.30;93.40;;;;;;5017098;28;20379;-90
2020/12/10 01:57:33;;;;;;;49.87;20.97;;;-3276.40;93.30;;;;;;5016808;28;20501;-89
2020/12/10 01:59:59;;;;;;;53.17;21.70;;;-3276.40;93.10;;;;;;5016722;28;20390;-89
2020/12/10 02:02:24;;;;;;;50.17;20.87;;;-3276.40;93.30;;;;;;5017078;28;20391;-89
2020/12/10 02:04:50;;;;;;;49.57;21.17;;;-3276.40;93.30;;;;;;5034042;28;20366;-88
2020/12/10 02:07:15;;;;;;;53.47;22.37;;;-3276.30;93.20;;;;;;5032802;28;20395;-89
2020/12/10 02:09:42;;;;;;;49.10;21.03;;;-3276.40;93.20;;;;;;5016496;28;20383;-88
2020/12/10 02:12:08;;;;;;;51.95;21.13;;;-3276.50;93.10;;;;;;5016839;28;20407;-90
2020/12/10 02:14:36;;;;;;;50.85;21.63;;;-3276.40;93.00;;;;;;4999960;28;20481;-90
2020/12/10 02:17:03;;;;;;;52.80;21.92;;;-3276.40;92.90;;;;;;4999613;28;20395;-89
2020/12/10 02:19:29;;;;;;;55.25;22.25;;;-3276.40;92.90;;;;;;5016310;28;20429;-87
2020/12/10 02:21:54;;;;;;;58.70;22.67;;;-3276.50;92.90;;;;;;5016452;28;20416;-88
2020/12/10 02:24:20;;;;;;;53.60;21.50;;;-3276.40;93.10;;;;;;5016167;28;20383;-89
2020/12/10 02:26:46;;;;;;;55.85;23.20;;;-3276.40;93.10;;;;;;5015774;28;20490;-89
2020/12/10 02:29:11;;;;;;;56.25;23.63;;;-3276.50;92.90;;;;;;5016596;28;20520;-88
2020/12/10 02:31:37;;;;;;;54.75;22.70;;;-3276.50;92.90;;;;;;5016139;28;20414;-89
2020/12/10 02:34:06;;;;;;;58.83;23.00;;;-3276.50;92.80;;;;;;5016482;28;20394;-88
2020/12/10 02:36:33;;;;;;;60.83;25.10;;;-3276.60;92.70;;;;;;4999512;28;20395;-89
2020/12/10 02:38:58;;;;;;;58.83;24.55;;;-3276.60;92.70;;;;;;4999602;28;20765;-90
2020/12/10 02:41:24;;;;;;;63.83;25.98;;;-3276.50;92.70;;;;;;5015944;28;20710;-88
2020/12/10 02:43:50;;;;;;;62.37;24.50;;;-3276.50;93.00;;;;;;5016282;28;20799;-86
2020/12/10 02:46:15;;;;;;;59.70;24.23;;;-3276.50;92.80;;;;;;5015781;28;20875;-89
2020/12/10 02:48:41;;;;;;;55.70;24.67;;;-3276.50;92.80;;;;;;5015575;28;20845;-88
2020/12/10 02:51:06;;;;;;;58.07;24.30;;;-3276.60;92.70;;;;;;5015223;28;20896;-88
2020/12/10 02:53:33;;;;;;;60.72;25.08;;;-3276.60;92.70;;;;;;5014669;28;20407;-87
2020/12/10 02:55:58;;;;;;;57.33;24.17;;;-3276.60;93.00;;;;;;4999518;28;20441;-88
2020/12/10 02:58:24;;;;;;;60.40;24.60;;;-3276.60;92.80;;;;;;5015116;28;20395;-88
2020/12/10 03:00:49;;;;;;;55.55;22.80;;;-3276.60;92.80;;;;;;4999393;28;20419;-86
2020/12/10 03:03:16;;;;;;;55.97;23.58;;;-3276.60;92.60;;;;;;5015185;28;20430;-88
2020/12/10 03:05:41;;;;;;;56.30;23.67;;;-3276.60;92.90;;;;;;5015640;28;20387;-88
2020/12/10 03:08:07;;;;;;;59.30;23.27;;;-3276.60;92.80;;;;;;5014977;28;20437;-88
2020/12/10 03:10:32;;;;;;;60.42;25.15;;;-3276.50;92.80;;;;;;5015289;28;20728;-86
2020/12/10 03:12:58;;;;;;;64.50;25.38;;;-3276.60;92.90;;;;;;5015047;28;20487;-89
2020/12/10 03:15:23;;;;;;;52.08;23.33;;;-3276.50;93.00;;;;;;4999149;28;20395;-87
2020/12/10 03:17:49;;;;;;;58.17;23.60;;;-3276.50;92.90;;;;;;5014738;28;20474;-86
2020/12/10 03:20:16;;;;;;;56.55;23.20;;;-3276.60;93.00;;;;;;5015583;28;20394;-88
2020/12/10 03:22:41;;;;;;;56.53;23.08;;;-3276.60;92.70;;;;;;5015157;28;20401;-87
2020/12/10 03:25:07;;;;;;;59.13;25.30;;;-3276.50;92.90;;;;;;5014770;28;20387;-88
2020/12/10 03:27:32;;;;;;;63.40;24.20;;;-3276.50;92.90;;;;;;4998164;28;20410;-86
2020/12/10 03:29:58;;;;;;;55.97;24.10;;;-3276.60;92.80;;;;;;5015072;28;20383;-88
2020/12/10 03:32:23;;;;;;;58.37;23.97;;;-3276.60;92.60;;;;;;5032494;28;20963;-86
2020/12/10 03:34:49;;;;;;;61.23;25.20;;;-3276.60;92.60;;;;;;5032452;28;20419;-88
2020/12/10 03:37:14;;;;;;;61.47;24.35;;;-3276.50;92.70;;;;;;5014273;28;20402;-86
2020/12/10 03:39:40;;;;;;;66.43;26.65;;;-3276.40;92.90;;;;;;4998442;28;20391;-88
2020/12/10 03:42:05;;;;;;;63.75;25.13;;;-3276.50;92.70;;;;;;5014807;28;20449;-87
2020/12/10 03:44:40;;;;;;;59.88;23.50;;;-3276.50;92.70;;;;;;4998742;28;20387;-90
2020/12/10 03:47:06;;;;;;;60.80;25.30;;;-3276.50;92.40;;;;;;5013192;28;20383;-87
2020/12/10 03:49:31;;;;;;;55.87;23.50;;;-3276.50;92.70;;;;;;5014403;28;20379;-88
2020/12/10 03:51:57;;;;;;;58.07;22.70;;;-3276.40;92.70;;;;;;5031826;28;20425;-88
2020/12/10 03:54:22;;;;;;;59.40;24.03;;;-3276.40;92.80;;;;;;5014898;28;20905;-88
2020/12/10 03:56:48;;;;;;;63.90;24.50;;;-3276.40;92.70;;;;;;4997697;28;20413;-88
2020/12/10 03:59:13;;;;;;;59.63;23.77;;;-3276.40;92.60;;;;;;5031864;28;20406;-88
2020/12/10 04:01:39;;;;;;;61.20;24.55;;;-3276.40;92.60;;;;;;5013844;28;20725;-89
2020/12/10 04:04:04;;;;;;;61.28;24.63;;;-3276.40;92.50;;;;;;5014415;28;20380;-88
2020/12/10 04:06:30;;;;;;;58.17;23.85;;;-3276.30;92.50;;;;;;5014387;28;20387;-86
2020/12/10 04:08:56;;;;;;;62.42;25.33;;;-3276.30;92.60;;;;;;5014021;28;20474;-88
2020/12/10 04:11:22;;;;;;;60.97;24.80;;;-3276.30;92.50;;;;;;5014365;28;20407;-89
2020/12/10 04:13:47;;;;;;;62.78;25.27;;;-3276.20;92.80;;;;;;5014359;28;20470;-87
2020/12/10 04:16:13;;;;;;;61.30;24.38;;;-3276.30;92.70;;;;;;4997550;28;20925;-89
2020/12/10 04:18:40;;;;;;;60.40;24.75;;;-3276.30;92.60;;;;;;5013545;28;20445;-87
2020/12/10 04:21:09;;;;;;;57.25;23.17;;;-3276.30;92.30;;;;;;4997997;28;20399;-89
2020/12/10 04:23:35;;;;;;;56.20;22.27;;;-3276.20;92.70;;;;;;5014432;28;20471;-88
2020/12/10 04:26:00;;;;;;;63.47;24.20;;;-3276.20;92.70;;;;;;5014053;28;20899;-87
2020/12/10 04:28:26;;;;;;;59.57;23.50;;;-3276.10;92.80;;;;;;5014014;28;20428;-90
2020/12/10 04:30:52;;;;;;;62.75;24.90;;;-3276.10;92.80;;;;;;5014328;28;20461;-89
2020/12/10 04:33:17;;;;;;;59.22;24.25;;;-3276.10;93.10;;;;;;5032070;28;20747;-88
2020/12/10 04:35:43;;;;;;;60.22;25.15;;;-3276.00;93.00;;;;;;5014169;28;20509;-87
2020/12/10 04:38:08;;;;;;;58.53;23.42;;;-3276.20;92.60;;;;;;5013821;28;20445;-89
2020/12/10 04:40:34;;;;;;;57.63;23.87;;;-3276.00;92.80;;;;;;5014124;28;20520;-89
2020/12/10 04:43:04;;;;;;;55.97;23.43;;;-3276.10;92.80;;;;;;5014558;28;20387;-90
2020/12/10 04:45:29;;;;;;;60.28;23.73;;;-3276.10;92.70;;;;;;5014124;28;20382;-87
2020/12/10 04:47:55;;;;;;;60.63;23.50;;;-3276.20;92.40;;;;;;5013570;28;20383;-86
2020/12/10 04:50:23;;;;;;;65.35;25.60;;;-3276.00;92.50;;;;;;5014071;28;20437;-88
2020/12/10 04:52:52;;;;;;;57.47;23.45;;;-3276.10;92.20;;;;;;5014254;28;20964;-89
2020/12/10 04:55:18;;;;;;;62.88;24.52;;;-3276.00;92.50;;;;;;5014116;28;20838;-88
2020/12/10 04:57:43;;;;;;;59.65;24.02;;;-3275.90;92.60;;;;;;5013180;28;20470;-86
2020/12/10 05:00:14;;;;;;;55.57;22.90;;;-3276.00;92.80;;;;;;5014040;28;20387;-87
2020/12/10 05:02:40;;;;;;;53.90;22.63;;;-3275.90;92.80;;;;;;5011939;28;20405;-89
2020/12/10 05:05:25;;;;;;;59.63;23.77;;;-3276.00;92.50;;;;;;4997107;28;20942;-88
2020/12/10 05:07:51;;;;;;;55.78;23.50;;;-3275.90;92.30;;;;;;5012940;28;20488;-89
2020/12/10 05:10:17;;;;;;;57.58;22.98;;;-3275.90;92.40;;;;;;5013869;28;20394;-89
2020/12/10 05:12:44;;;;;;;54.77;24.07;;;-3275.90;92.50;;;;;;5014191;28;20407;-89
2020/12/10 05:15:10;;;;;;;57.50;23.83;;;-3276.00;92.10;;;;;;5017903;28;20655;-90
2020/12/10 05:17:35;;;;;;;66.75;24.50;;;-3275.90;91.90;;;;;;5017023;28;20387;-87
2020/12/10 05:20:02;;;;;;;59.50;25.05;;;-3275.90;91.90;;;;;;5001081;28;20379;-90
2020/12/10 05:22:27;;;;;;;62.97;24.77;;;-3275.80;92.30;;;;;;5001204;28;20395;-88
2020/12/10 05:25:03;;;;;;;63.05;24.70;;;-3275.80;92.40;;;;;;5017372;28;20667;-90
2020/12/10 05:27:29;;;;;;;62.38;24.55;;;-3275.80;92.20;;;;;;5017109;28;20868;-89
2020/12/10 05:29:55;;;;;;;57.65;24.08;;;-3275.80;92.40;;;;;;5017077;28;20752;-89
2020/12/10 05:32:38;;;;;;;58.22;23.50;;;-3275.80;92.50;;;;;;5017482;28;20418;-89
2020/12/10 05:35:23;;;;;;;60.03;23.33;;;-3275.80;92.40;;;;;;5017285;28;20391;-89
2020/12/10 05:37:52;;;;;;;60.20;23.83;;;-3275.80;92.00;;;;;;5017048;28;20402;-90
2020/12/10 05:40:17;;;;;;;61.67;24.08;;;-3275.80;92.00;;;;;;5000800;28;20422;-90
2020/12/10 05:42:45;;;;;;;64.22;23.33;;;-3275.70;92.10;;;;;;5016976;28;20411;-89
2020/12/10 05:45:17;;;;;;;60.67;24.08;;;-3275.70;92.10;;;;;;5001270;28;20390;-87
2020/12/10 05:47:56;;;;;;;60.42;24.23;;;-3275.60;92.50;;;;;;5034094;28;20466;-89
2020/12/10 05:50:26;;;;;;;62.13;23.73;;;-3275.70;92.60;;;;;;5018308;28;20470;-90
2020/12/10 05:53:11;;;;;;;64.00;24.42;;;-3275.60;92.50;;;;;;5017303;28;20453;-90
2020/12/10 05:55:48;;;;;;;57.33;23.77;;;-3275.60;92.70;;;;;;5018245;28;20471;-89
2020/12/10 05:58:13;;;;;;;56.83;23.33;;;-3275.50;92.80;;;;;;5016475;28;20399;-90
2020/12/10 06:00:39;;;;;;;61.67;23.45;;;-3275.50;92.90;;;;;;5017022;28;20452;-90
2020/12/10 06:03:05;;;;;;;61.13;23.35;;;-3275.60;92.70;;;;;;5017100;28;20393;-89
2020/12/10 06:05:30;;;;;;;58.17;23.00;;;-3275.60;92.60;;;;;;5000259;28;20467;-91
2020/12/10 06:08:09;;;;;;;59.77;23.07;;;-3275.50;92.40;;;;;;5016329;28;20458;-90
2020/12/10 06:10:39;;;;;;;55.35;21.95;;;-3275.50;92.80;;;;;;5016726;28;20445;-90
2020/12/10 06:13:04;;;;;;;55.05;23.02;;;-3275.50;92.60;;;;;;5016838;28;20450;-89
2020/12/10 06:15:32;;;;;;;59.63;24.92;;;-3275.40;92.40;;;;;;5016441;28;20647;-91
2020/12/10 06:18:06;;;;;;;60.08;25.02;;;-3275.50;92.60;;;;;;5016794;28;20387;-89
2020/12/10 06:20:42;;;;;;;53.47;23.02;;;-3275.50;92.70;;;;;;5033978;28;20478;-91
2020/12/10 06:23:31;;;;;;;54.90;23.07;;;-3275.50;92.50;;;;;;5016617;28;20426;-90
2020/12/10 06:25:58;;;;;;;54.55;21.85;;;-3275.50;92.70;;;;;;5016950;28;20379;-91
2020/12/10 06:28:24;;;;;;;54.95;23.63;;;-3275.50;92.60;;;;;;4999290;28;20392;-90
2020/12/10 06:31:09;;;;;;;52.55;22.67;;;-3275.40;92.50;;;;;;5016453;28;20433;-90
2020/12/10 06:33:35;;;;;;;56.33;24.13;;;-3275.40;92.50;;;;;;5016351;28;20728;-91
2020/12/10 06:36:22;;;;;;;53.60;22.70;;;-3275.40;92.40;;;;;;5016458;28;20383;-90
2020/12/10 06:38:49;;;;;;;59.00;24.13;;;-3275.40;92.40;;;;;;5016691;28;20390;-89
2020/12/10 06:41:14;;;;;;;57.53;25.52;;;-3275.40;92.60;;;;;;4999821;28;20426;-91
2020/12/10 06:43:40;;;;;;;53.17;23.43;;;-3275.40;92.50;;;;;;5016285;28;20757;-90
2020/12/10 06:46:06;;;;;;;58.07;24.63;;;-3275.30;92.20;;;;;;5033354;28;20513;-90
2020/12/10 06:48:39;;;;;;;55.88;22.73;;;-3275.30;92.50;;;;;;5015939;28;20375;-90
2020/12/10 06:51:18;;;;;;;57.92;23.55;;;-3275.30;92.90;;;;;;5015948;28;20505;-90
2020/12/10 06:53:59;;;;;;;54.67;23.20;;;-3275.30;92.90;;;;;;5016070;28;20435;-90
2020/12/10 06:56:25;;;;;;;62.08;23.67;;;-3275.30;92.80;;;;;;5033238;28;20392;-91
2020/12/10 06:58:52;;;;;;;55.07;22.47;;;-3275.30;92.90;;;;;;5015324;28;20504;-88
2020/12/10 07:01:24;;;;;;;56.70;24.02;;;-3275.30;92.90;;;;;;5015987;28;20475;-90
2020/12/10 07:03:52;;;;;;;56.75;23.38;;;-3275.30;92.70;;;;;;5033156;28;20379;-87
2020/12/10 07:06:21;;;;;;;55.78;23.40;;;-3275.30;92.90;;;;;;4999954;28;20713;-90
2020/12/10 07:09:13;;;;;;;54.75;23.40;;;-3275.30;92.80;;;;;;4999216;28;20416;-90
2020/12/10 07:11:41;;;;;;;53.38;22.95;;;-3275.30;92.80;;;;;;5033054;28;20411;-89
2020/12/10 07:14:26;;;;;;;57.83;22.95;;;-3275.30;92.80;;;;;;5015432;28;20399;-89
2020/12/10 07:16:53;;;;;;;56.50;23.02;;;-3275.30;92.80;;;;;;5015230;28;20390;-89
2020/12/10 07:19:19;;;;;;;59.00;22.48;;;-3275.30;92.80;;;;;;5015482;28;20410;-91
2020/12/10 07:21:44;;;;;;;56.80;22.20;;;-3275.20;92.90;;;;;;5015464;28;20395;-90
2020/12/10 07:24:10;;;;;;;58.30;23.48;;;-3275.20;92.90;;;;;;5015490;28;20742;-89
2020/12/10 07:26:36;;;;;;;55.35;22.70;;;-3275.20;92.90;;;;;;5014999;28;20383;-89
2020/12/10 07:29:01;;;;;;;56.00;22.40;;;-3275.20;92.90;;;;;;5015544;28;20390;-91
2020/12/10 07:31:27;;;;;;;53.83;21.87;;;-3275.20;92.90;;;;;;4998894;28;20487;-89
2020/12/10 07:33:56;;;;;;;53.33;22.73;;;-3275.20;92.80;;;;;;5015170;28;20559;-90
2020/12/10 07:36:22;;;;;;;51.97;22.85;;;-3275.20;92.70;;;;;;5014093;28;20404;-89
2020/12/10 07:38:47;;;;;;;51.75;21.90;;;-3275.20;92.60;;;;;;5014888;28;20395;-90
2020/12/10 07:41:13;;;;;;;55.40;21.83;;;-3275.10;92.70;;;;;;5014865;28;20398;-89
2020/12/10 07:43:48;;;;;;;52.22;21.77;;;-3275.10;92.60;;;;;;5015019;28;20376;-88
2020/12/10 07:46:14;;;;;;;56.33;21.40;;;-3275.20;92.60;;;;;;5014843;28;20402;-90
2020/12/10 07:48:40;;;;;;;55.05;22.02;;;-3275.20;92.70;;;;;;5014306;28;20848;-90
2020/12/10 07:51:05;;;;;;;53.88;22.63;;;-3275.20;92.80;;;;;;5015077;28;20852;-88
2020/12/10 07:53:31;;;;;;;55.43;21.77;;;-3275.10;92.90;;;;;;4998244;28;20490;-90
2020/12/10 07:55:59;;;;;;;59.97;22.60;;;-3275.10;93.00;;;;;;5014907;28;20383;-88
2020/12/10 07:59:01;;;;;;;52.28;21.80;;;-3275.20;93.00;;;;;;5014193;28;20387;-90
2020/12/10 08:01:29;;;;;;;63.55;24.15;;;-3275.10;93.00;;;;;;4935674;29;20812;-88
2020/12/10 08:04:17;;;;;;;58.58;22.38;;;-3275.20;93.10;;;;;;4983801;28;20530;-89
2020/12/10 08:06:43;;;;;;;57.85;23.00;;;-3275.30;92.90;;;;;;5017137;28;20386;-88
2020/12/10 08:09:10;;;;;;;58.80;22.80;;;-3275.20;93.20;;;;;;5014539;28;20379;-89
2020/12/10 08:11:46;;;;;;;56.55;22.60;;;-3275.20;93.20;;;;;;5014643;28;20450;-90
2020/12/10 08:14:11;;;;;;;49.88;20.67;;;-3275.30;93.10;;;;;;5016209;28;20410;-90
2020/12/10 08:16:41;;;;;;;56.03;21.23;;;-3275.20;92.80;;;;;;5013934;28;20383;-90
2020/12/10 08:19:13;;;;;;;51.65;21.33;;;-3275.30;92.70;;;;;;5015087;28;20390;-89
2020/12/10 08:21:39;;;;;;;57.60;22.25;;;-3275.30;92.70;;;;;;5031743;28;20891;-89
2020/12/10 08:24:05;;;;;;;54.50;20.70;;;-3275.30;92.80;;;;;;5031825;28;20375;-88
2020/12/10 08:26:30;;;;;;;51.43;21.00;;;-3275.20;92.80;;;;;;5013907;28;20812;-89
2020/12/10 08:28:56;;;;;;;50.83;21.83;;;-3275.30;92.90;;;;;;5031182;28;20441;-89
2020/12/10 08:31:25;;;;;;;59.17;21.17;;;-3275.30;92.90;;;;;;5031727;28;20417;-90
2020/12/10 08:33:52;;;;;;;53.80;21.93;;;-3275.30;92.80;;;;;;5014515;28;20479;-89
2020/12/10 08:36:31;;;;;;;57.90;21.90;;;-3275.30;92.90;;;;;;5014152;28;20403;-90
2020/12/10 08:38:57;;;;;;;60.08;22.55;;;-3275.40;93.00;;;;;;4997514;28;20748;-90
2020/12/10 08:41:24;;;;;;;60.55;22.75;;;-3275.40;93.10;;;;;;5014269;28;20422;-91
2020/12/10 08:43:57;;;;;;;55.63;22.02;;;-3275.30;93.20;;;;;;5031378;28;20445;-89
2020/12/10 08:46:22;;;;;;;60.85;21.80;;;-3275.40;93.30;;;;;;4997655;28;20406;-90
2020/12/10 08:48:48;;;;;;;62.33;22.75;;;-3275.40;93.10;;;;;;4997032;28;20395;-90
2020/12/10 08:51:13;;;;;;;58.40;22.27;;;-3275.40;93.20;;;;;;5031600;28;20887;-90
2020/12/10 08:53:49;;;;;;;55.80;22.00;;;-3275.40;93.40;;;;;;5012948;28;20502;-91
2020/12/10 08:56:24;;;;;;;62.45;23.30;;;-3275.50;93.80;;;;;;4997402;28;20395;-90
2020/12/10 08:58:50;;;;;;;58.20;22.23;;;-3275.60;93.70;;;;;;5014533;28;20481;-90
2020/12/10 09:01:15;;;;;;;53.63;22.05;;;-3275.60;94.00;;;;;;5013836;28;20391;-91
2020/12/10 09:03:41;;;;;;;54.90;21.70;;;-3275.70;93.90;;;;;;5013998;28;20379;-90
2020/12/10 09:06:06;;;;;;;56.03;21.67;;;-3275.80;94.10;;;;;;5030905;28;20775;-90
2020/12/10 09:08:32;;;;;;;55.03;21.80;;;-3275.80;93.80;;;;;;5013483;28;20410;-86
2020/12/10 09:10:58;;;;;;;53.00;20.95;;;-3275.80;93.60;;;;;;5030831;28;20383;-90
2020/12/10 09:13:24;;;;;;;53.50;20.92;;;-3276.00;93.80;;;;;;4997459;28;20388;-90
2020/12/10 09:15:50;;;;;;;57.85;22.15;;;-3276.00;93.60;;;;;;5013381;28;20398;-89
2020/12/10 09:18:15;;;;;;;53.80;21.40;;;-3276.10;93.60;;;;;;4997030;28;20394;-90
2020/12/10 09:20:41;;;;;;;50.03;19.93;;;-3276.10;93.20;;;;;;5013718;28;20391;-90
2020/12/10 09:23:10;;;;;;;58.08;21.58;;;-3276.10;93.10;;;;;;5013662;28;20381;-90
2020/12/10 09:25:36;;;;;;;50.38;19.92;;;-3276.20;93.60;;;;;;5014517;28;20437;-90
2020/12/10 09:28:01;;;;;;;52.83;20.40;;;-3276.30;93.30;;;;;;5013185;28;20763;-88
2020/12/10 09:30:27;;;;;;;50.73;20.37;;;-3276.30;93.40;;;;;;5013918;28;20375;-86
2020/12/10 09:32:52;;;;;;;50.50;19.67;;;-3276.40;93.10;;;;;;5013631;28;20521;-89
2020/12/10 09:35:18;;;;;;;51.43;20.73;;;-3276.40;93.10;;;;;;5031107;28;20457;-88
2020/12/10 09:37:43;;;;;;;47.53;20.20;;;-3276.60;93.20;;;;;;5029375;28;20763;-88
2020/12/10 09:40:10;;;;;;;48.83;19.90;;;-3276.70;92.50;;;;;;5030369;28;20449;-87
2020/12/10 09:42:40;;;;;;;49.70;20.25;;;-3276.60;92.30;;;;;;5029709;28;20383;-86
2020/12/10 09:45:06;;;;;;;48.38;19.42;;;-3276.70;92.50;;;;;;5029955;28;20379;-87
2020/12/10 09:47:31;;;;;;;51.50;20.43;;;-3276.70;92.50;;;;;;5029328;28;20844;-87
2020/12/10 09:49:57;;;;;;;50.77;21.40;;;-3276.70;92.60;;;;;;5001308;28;20791;-84
2020/12/10 09:52:24;;;;;;;47.25;20.23;;;-3276.70;92.60;;;;;;4996608;28;20918;-88
2020/12/10 09:57:31;;;;;;;43.58;18.35;;;0.00;92.50;;;;;;5014279;28;20406;-83
2020/12/10 09:59:58;;;;;;;48.72;18.27;;;0.00;92.40;;;;;;5015790;28;20383;-86
2020/12/10 10:02:23;;;;;;;46.67;18.50;;;0.10;92.10;;;;;;5016468;28;20407;-84
2020/12/10 10:04:49;;;;;;;44.83;18.83;;;0.10;91.90;;;;;;5016158;28;20785;-85
2020/12/10 10:07:14;;;;;;;48.15;19.33;;;0.20;91.80;;;;;;4999564;28;20736;-85
2020/12/10 10:09:40;;;;;;;47.78;19.88;;;0.20;91.90;;;;;;5033793;28;20462;-85
2020/12/10 10:12:06;;;;;;;45.50;18.40;;;0.40;91.50;;;;;;5016077;28;20915;-84
2020/12/10 10:14:33;;;;;;;44.05;18.17;;;0.30;91.80;;;;;;5015884;28;20391;-84
2020/12/10 10:16:58;;;;;;;40.75;17.63;;;0.40;91.80;;;;;;5015480;28;20398;-84
2020/12/10 10:19:24;;;;;;;39.50;17.25;;;0.30;91.60;;;;;;4999516;28;20744;-84
2020/12/10 10:21:50;;;;;;;40.47;16.65;;;0.30;91.60;;;;;;4999068;28;20396;-84
2020/12/10 10:24:15;;;;;;;41.13;17.27;;;0.40;91.80;;;;;;5015908;28;20380;-83
2020/12/10 10:26:41;;;;;;;42.87;17.17;;;0.40;92.30;;;;;;4998548;28;20394;-84
2020/12/10 10:29:08;;;;;;;52.47;19.83;;;0.60;91.60;;;;;;5015713;28;20461;-84
2020/12/10 10:31:34;;;;;;;46.50;18.75;;;0.70;90.80;;;;;;5015656;28;20410;-83
2020/12/10 10:33:59;;;;;;;43.17;16.20;;;0.80;90.90;;;;;;5015466;28;20542;-83
2020/12/10 10:36:25;;;;;;;40.53;17.00;;;0.80;91.00;;;;;;5015353;28;20391;-83
2020/12/10 10:38:50;;;;;;;37.33;15.48;;;0.80;90.90;;;;;;5015099;28;20433;-83
2020/12/10 10:41:16;;;;;;;36.03;15.20;;;0.90;90.40;;;;;;5015205;28;20387;-83
2020/12/10 10:43:42;;;;;;;35.00;14.95;;;1.00;90.60;;;;;;4998858;28;20379;-84
2020/12/10 10:46:07;;;;;;;38.95;15.63;;;1.00;90.10;;;;;;5015158;28;20387;-85
2020/12/10 10:48:33;;;;;;;38.78;16.42;;;1.00;89.90;;;;;;5032280;28;20840;-83
2020/12/10 10:50:58;;;;;;;33.95;15.02;;;1.10;90.30;;;;;;5015184;28;20387;-83
2020/12/10 10:53:24;;;;;;;39.60;15.30;;;1.10;89.80;;;;;;4998380;28;20407;-84
2020/12/10 10:55:50;;;;;;;34.17;15.23;;;1.10;90.00;;;;;;4999058;28;20784;-83
2020/12/10 10:58:16;;;;;;;32.23;15.00;;;1.20;89.50;;;;;;5014536;28;20469;-83
2020/12/10 11:00:44;;;;;;;36.83;15.32;;;1.10;89.40;;;;;;4998591;28;20498;-83
2020/12/10 11:03:09;;;;;;;36.90;15.97;;;1.10;89.70;;;;;;4997271;28;20395;-82
2020/12/10 11:05:35;;;;;;;40.00;16.45;;;1.10;90.10;;;;;;5014844;28;20390;-82
2020/12/10 11:08:00;;;;;;;40.25;15.75;;;1.20;89.80;;;;;;5014140;28;20383;-82
2020/12/10 11:10:26;;;;;;;41.78;16.70;;;1.30;90.00;;;;;;5014825;28;20375;-82
2020/12/10 11:12:51;;;;;;;33.90;14.95;;;1.20;89.80;;;;;;5031937;28;20780;-82
2020/12/10 11:15:17;;;;;;;34.47;15.20;;;1.20;89.70;;;;;;5014777;28;20383;-83
2020/12/10 11:17:42;;;;;;;35.72;15.63;;;1.20;89.60;;;;;;4997304;28;20941;-83
2020/12/10 11:20:08;;;;;;;33.80;15.57;;;1.20;89.60;;;;;;5014376;28;20386;-82
2020/12/10 11:22:35;;;;;;;35.50;16.00;;;1.20;89.90;;;;;;4998131;28;20387;-83
2020/12/10 11:25:01;;;;;;;35.60;16.23;;;1.20;89.90;;;;;;5014391;28;20391;-83
2020/12/10 11:27:30;;;;;;;37.60;15.80;;;1.20;89.80;;;;;;5013888;28;20535;-82
2020/12/10 11:29:56;;;;;;;32.33;13.90;;;1.20;90.20;;;;;;5014036;28;20393;-83
2020/12/10 11:32:22;;;;;;;30.15;14.60;;;1.20;90.00;;;;;;5014329;28;20427;-83
2020/12/10 11:34:47;;;;;;;31.98;14.15;;;1.20;89.50;;;;;;4997609;28;20477;-82
2020/12/10 11:37:13;;;;;;;29.40;15.03;;;1.30;89.60;;;;;;5013592;28;20391;-83
2020/12/10 11:39:39;;;;;;;33.15;14.32;;;1.30;89.90;;;;;;4997000;28;21362;-83
2020/12/10 11:42:05;;;;;;;33.37;15.23;;;1.30;89.50;;;;;;4997881;28;20423;-83
2020/12/10 11:44:30;;;;;;;33.70;14.00;;;1.30;89.40;;;;;;4997254;28;20413;-84
2020/12/10 11:46:56;;;;;;;33.63;14.60;;;1.30;89.00;;;;;;5013463;28;20521;-83
2020/12/10 11:49:22;;;;;;;28.33;13.73;;;1.40;89.00;;;;;;5014174;28;20923;-82
2020/12/10 11:51:47;;;;;;;33.97;14.37;;;1.30;89.30;;;;;;5013675;28;20485;-82
2020/12/10 11:54:13;;;;;;;34.83;14.97;;;1.40;89.80;;;;;;4997691;28;20442;-82
2020/12/10 11:56:38;;;;;;;28.67;14.17;;;1.40;89.30;;;;;;5012959;28;20418;-82
2020/12/10 11:59:04;;;;;;;32.67;14.97;;;1.30;89.50;;;;;;5013894;28;20478;-83
2020/12/10 12:01:29;;;;;;;33.10;14.50;;;1.40;89.60;;;;;;5013431;28;20395;-82
2020/12/10 12:03:55;;;;;;;31.73;15.00;;;1.40;89.50;;;;;;4997363;28;20395;-82
2020/12/10 12:06:22;;;;;;;29.47;14.03;;;1.40;89.60;;;;;;4997078;28;20895;-83
2020/12/10 12:08:47;;;;;;;30.90;14.32;;;1.40;89.40;;;;;;5030945;28;20391;-82